Tiempo atmosférico en la estación meteorológica de Irurtzun, Navarra (455 m.)



Fecha
DESCASC
Temp. máxima en grados centígrados (hora)
DESCASC
Temp. mínima en grados centígrados (hora)
DESCASC
Temp. media en grados centígrados
DESCASC
Racha de viento máxima en m/sg (hora)
DESCASC
Velocidad máxima media en intervalos de 10 minutos(hora)
DESCASC
Precipitaciones diarias en mm
DESCASC
Precipitaciones de 00:00 a 06:00 en mm
DESCASC
Precipitaciones de 06:00 a 12:00 en mm
DESCASC
Precipitaciones de 12:00 a 18:00 en mm
DESCASC
Precipitaciones de 18:00 a 24:00 en mm
DESCASC
31-03-2020 8.2 (16:30) 0.1 (01:30) 4.1 4.44 (14:20) 2.5 (14:20) 7.8 0 2.4 3.8 1.6
30-03-2020 6.5 (15:30) 0.6 (08:30) 3.6 11.11 (01:10) 4.17 (15:50) 1 0 0.8 0.2 0
29-03-2020 12.3 (15:00) 1.9 (00:00) 7.1 10 (13:10) 4.17 (10:40) 0 0 0 0 0
28-03-2020 17.9 (15:00) -0.6 (-00:0) 8.6 7.22 (15:20) 3.89 (17:50) 0 0 0 0 0
27-03-2020 14.8 (16:20) -1.8 (-00:0) 6.5 8.06 (19:10) 3.33 (18:30) 0 0 0 0 0
26-03-2020 10.4 (14:50) 1.8 (00:00) 6.1 12.78 (15:20) 6.11 (13:10) 1 1 0 0 0
25-03-2020 16.6 (15:00) 1.6 (00:00) 9.1 8.61 (13:00) 4.44 (17:20) 0 0 0 0 0
24-03-2020 18.5 (15:40) 6.4 (00:00) 12.5 6.67 (17:30) 2.78 (13:10) 0 0 0 0 0
23-03-2020 17.6 (14:20) 7.6 (00:00) 12.6 6.67 (14:40) 4.17 (14:40) 1.2 0 0 0 1.2
22-03-2020 17.9 (13:10) 2.1 (06:00) 10 8.89 (14:00) 3.33 (18:00) 0 0 0 0 0
21-03-2020 17.4 (16:00) 6 (00:00) 11.7 8.61 (15:30) 5 (14:30) 0 0 0 0 0
20-03-2020 17 (16:40) 9.5 (00:00) 13.3 12.5 (11:40) 5.28 (15:10) 0 0 0 0 0
19-03-2020 19.3 (14:20) 8.4 (00:00) 13.8 10 (23:30) 5.28 (15:10) 0 0 0 0 0
18-03-2020 18 (16:40) 6.5 (00:00) 12.3 7.5 (13:30) 3.89 (13:40) 0.2 0 0.2 0 0
17-03-2020 12.3 (15:20) 8 (00:00) 10.2 6.39 (00:20) 2.78 (00:20) 0 0 0 0 0
16-03-2020 9 (23:59) 4.8 (00:00) 6.9 6.39 (09:50) 3.06 (09:50) 28.8 16.4 9.2 3.2 0
15-03-2020 20.6 (14:50) 1.4 (00:00) 11 8.61 (14:20) 4.72 (15:50) 17 0 0 0.4 16.6
14-03-2020 14.6 (16:20) 3 (00:00) 8.8 9.44 (12:50) 3.61 (19:00) 0 0 0 0 0
13-03-2020 12.4 (11:40) 6.9 (23:10) 9.6 9.44 (03:50) 4.17 (15:20) 0 0 0 0 0
12-03-2020 14.3 (14:40) 8.5 (00:00) 11.4 10 (19:40) 5.56 (19:40) 0 0 0 0 0
11-03-2020 23.5 (16:20) 2.7 (00:00) 13.1 4.72 (15:10) 2.78 (17:30) 0 0 0 0 0
10-03-2020 19 (15:50) 3.6 (00:00) 11.3 8.61 (15:20) 5.28 (15:10) 0 0 0 0 0
09-03-2020 10.4 (12:00) 6.9 (00:00) 8.6 10 (11:50) 5 (11:30) 10.2 2.2 1.2 5.4 1.4
08-03-2020 15.2 (16:20) 1.8 (00:00) 8.5 11.11 (19:00) 6.39 (19:50) 0.4 0.2 0 0 0.2
07-03-2020 10.3 (14:50) 3.5 (00:00) 6.9 7.78 (07:40) 3.33 (18:30) 16.8 8.6 6 2.2 0
06-03-2020 7.3 (13:20) 2.4 (00:00) 4.9 12.22 (19:50) 4.44 (19:40) 28.8 0.8 10.6 6.6 10.8
05-03-2020 13.8 (14:30) 6.2 (00:00) 10 14.72 (14:50) 6.11 (16:10) 14 0 10.6 1.8 1.6
04-03-2020 15.7 (15:30) 6.5 (00:00) 11.1 4.17 (21:20) 2.5 (00:10) 6.8 2.2 4.6 0 0

Gráficas

Temp. máximas Temp. mínimas Temp. medias Precipitaciones Rachas de viento máximas Velocidades máximas media en intervalos de 10 minutos

Datos horarios

Fecha y hora oficial Temperatura (ºC) Velocidad del viento (km/h) Dirección del viento Racha (km/h) Dirección de racha Precipitación (mm) Presión (hPa) Tendencia (hPa) Humedad (%)
2020-04-02 23:00:00 6.2 3 Noroeste 31 Oeste 0 -- -- 78
2020-04-02 22:00:00 7.3 8 Noroeste 29 Noroeste 0 -- -- 75
2020-04-02 21:00:00 7.6 4 Noroeste 23 Norte 0 -- -- 70
2020-04-02 20:00:00 9.8 12 Oeste 29 Oeste 0 -- -- 72
2020-04-02 19:00:00 12 12 Oeste 42 Oeste 0 -- -- 64
2020-04-02 18:00:00 13.6 13 Noroeste 36 Oeste 0 -- -- 58
2020-04-02 17:00:00 13.1 13 Oeste 31 Oeste 0 -- -- 63
2020-04-02 16:00:00 13.1 8 Oeste 24 Sudoeste 0 -- -- 67
2020-04-02 15:00:00 13.3 7 Noroeste 30 Noroeste 0.2 -- -- 70
2020-04-02 14:00:00 12.2 6 Noroeste 25 Norte 0 -- -- 73
2020-04-02 13:00:00 12.4 7 Noroeste 28 Oeste 0 -- -- 73
2020-04-02 12:00:00 11.9 10 Oeste 28 Oeste 0 -- -- 79
2020-04-02 11:00:00 11.8 14 Noroeste 26 Oeste 0 -- -- 80
2020-04-02 10:00:00 11 7 Noroeste 23 Noroeste 0 -- -- 85
2020-04-02 09:00:00 7.3 2 Norte 10 Noroeste 0 -- -- 99
2020-04-02 08:00:00 6.3 0 Calma 5 Nordeste 0 -- -- 97
2020-04-02 07:00:00 7.5 2 Norte 12 Oeste 0 -- -- 98
2020-04-02 06:00:00 8 0 Calma 8 Oeste 0 -- -- 98
2020-04-02 05:00:00 8.3 0 Calma 2 Este 0 -- -- 98
2020-04-02 04:00:00 8.3 0 Calma 2 Nordeste 0 -- -- 98
2020-04-02 03:00:00 8.4 0 Calma 2 Sur 0 -- -- 97
2020-04-02 02:00:00 8.5 0 Calma 3 Sur 0.6 -- -- 97
2020-04-02 01:00:00 8.6 0 Calma 2 Sudoeste 0.8 -- -- 96
2020-04-02 00:00:00 8.8 0 Calma 2 Noroeste 1 -- -- 95
2020-04-01 23:00:00 9.2 0 Calma 7 Nordeste 0.4 -- -- 94
2020-04-01 22:00:00 9.1 3 Nordeste 6 Norte 0 -- -- 94
2020-04-01 21:00:00 9.3 2 Norte 5 Norte 0.2 -- -- 93
2020-04-01 20:00:00 10.6 0 Calma 7 Este 0 -- -- 88
2020-04-01 19:00:00 10.7 4 Este 11 Este 0.2 -- -- 87
2020-04-01 18:00:00 11 5 Este 12 Este 0.4 -- -- 86
2020-04-01 17:00:00 11.6 5 Este 17 Sudeste 0.4 -- -- 86
2020-04-01 16:00:00 11 6 Sudeste 23 Sudeste 0.6 -- -- 86
2020-04-01 15:00:00 11.6 8 Sudeste 30 Este 0.4 -- -- 84
2020-04-01 14:00:00 11.7 11 Sudeste 24 Sudeste 0 -- -- 79
2020-04-01 13:00:00 11.7 11 Sudeste 34 Sudeste 0 -- -- 80
2020-04-01 12:00:00 10.4 17 Sudeste 42 Sudeste 0.2 -- -- 82
2020-04-01 11:00:00 10.6 18 Sudeste 31 Sudeste 0 -- -- 83
2020-04-01 10:00:00 9.6 8 Este 30 Sudeste 0 -- -- 85
2020-04-01 09:00:00 9.4 10 Sudeste 22 Nordeste 0 -- -- 84
2020-04-01 08:00:00 7.8 4 Este 10 Este 0 -- -- 91
2020-04-01 07:00:00 7.8 2 Norte 10 Este 0 -- -- 91
2020-04-01 06:00:00 7.6 5 Este 9 Este 0 -- -- 94
2020-04-01 05:00:00 7.2 2 Noroeste 4 Noroeste 0.2 -- -- 95
2020-04-01 04:00:00 7.4 0 Calma 9 Este 0 -- -- 93
2020-04-01 03:00:00 7.3 5 Este 13 Nordeste 0 -- -- 93
2020-04-01 02:00:00 7.2 6 Este 14 Este 0 -- -- 94
2020-04-01 01:00:00 7.2 8 Nordeste 14 Nordeste 0 -- -- 94
2020-04-01 00:00:00 7.1 3 Este 12 Este 0.2 -- -- 94
2020-03-31 23:00:00 7.1 5 Este 10 Este 0.4 -- -- 94
2020-03-31 22:00:00 7.2 4 Este 10 Nordeste 0 -- -- 93
2020-03-31 21:00:00 7.3 0 Calma 11 Este 0 -- -- 92
2020-03-31 20:00:00 7.6 6 Este 11 Este 0.6 -- -- 91
2020-03-31 19:00:00 7.8 4 Este 10 Este 0.4 -- -- 92
2020-03-31 18:00:00 7.5 4 Este 14 Nordeste 0.4 -- -- 90
2020-03-31 17:00:00 7.8 9 Este 15 Este 0.2 -- -- 88
2020-03-31 16:00:00 7.4 8 Este 15 Este 0.2 -- -- 91
2020-03-31 15:00:00 7.2 5 Sudeste 16 Este 0.6 -- -- 92
2020-03-31 14:00:00 6.6 4 Sudeste 12 Este 0.6 -- -- 95
2020-03-31 13:00:00 4.6 3 Sur 7 Sudeste 1.8 -- -- 97
2020-03-31 12:00:00 3 0 Calma 6 Este 1.4 -- -- 97
2020-03-31 11:00:00 1.9 0 Calma 3 Nordeste 1 -- -- 97
2020-03-31 10:00:00 1 0 Calma 0 Calma 0 -- -- 97
2020-03-31 09:00:00 0.6 0 Calma 0 Calma 0 -- -- 97
2020-03-31 08:00:00 0.4 0 Calma 2 Sudoeste 0 -- -- 96
2020-03-31 07:00:00 0.5 0 Calma 2 Sur 0 -- -- 95
2020-03-31 06:00:00 0.5 0 Calma 2 Sur 0 -- -- 94
2020-03-31 05:00:00 0.8 0 Calma 4 Sudeste 0 -- -- 93
2020-03-31 04:00:00 0.6 0 Calma 2 Sur 0 -- -- 93
2020-03-31 03:00:00 0.4 0 Calma 2 Oeste 0 -- -- 92
2020-03-31 02:00:00 0.2 0 Calma 4 Oeste 0 -- -- 91
2020-03-31 01:00:00 0.5 0 Calma 3 Nordeste 0 -- -- 88
2020-03-31 00:00:00 1.2 0 Calma 5 Oeste 0 -- -- 87
2020-03-30 23:00:00 1.2 0 Calma 10 Noroeste 0 -- -- 85
2020-03-30 22:00:00 1.3 2 Noroeste 21 Norte 0 -- -- 81
2020-03-30 21:00:00 2.5 9 Noroeste 19 Noroeste 0 -- -- 78
2020-03-30 20:00:00 3.6 6 Noroeste 19 Noroeste 0 -- -- 73
2020-03-30 19:00:00 4 8 Oeste 28 Oeste 0 -- -- 76
2020-03-30 18:00:00 4.9 9 Noroeste 27 Oeste 0 -- -- 71
2020-03-30 17:00:00 6.4 8 Oeste 30 Oeste 0 -- -- 64
2020-03-30 16:00:00 4.5 10 Noroeste 26 Noroeste 0.2 -- -- 71
2020-03-30 15:00:00 5 11 Noroeste 22 Norte 0 -- -- 69
2020-03-30 14:00:00 3.2 8 Oeste 22 Oeste 0 -- -- 78
2020-03-30 13:00:00 3.5 14 Oeste 28 Oeste 0 -- -- 74
2020-03-30 12:00:00 3 6 Noroeste 17 Oeste 0 -- -- 80
2020-03-30 11:00:00 2.9 6 Oeste 13 Noroeste 0.4 -- -- 86
2020-03-30 10:00:00 0.9 4 Oeste 15 Oeste 0.2 -- -- 89
2020-03-30 09:00:00 0.8 6 Noroeste 18 Noroeste 0.2 -- -- 89
2020-03-30 08:00:00 0.7 2 Noroeste 16 Oeste 0 -- -- 91
2020-03-30 07:00:00 1.3 4 Noroeste 23 Oeste 0 -- -- 85
2020-03-30 06:00:00 2 5 Noroeste 26 Oeste 0 -- -- 73
2020-03-30 05:00:00 2.1 4 Oeste 17 Oeste 0 -- -- 77
2020-03-30 04:00:00 2.5 7 Noroeste 22 Noroeste 0 -- -- 81
2020-03-30 03:00:00 3 8 Nordeste 24 Nordeste 0 -- -- 82
2020-03-30 02:00:00 3.4 8 Noroeste 40 Noroeste 0 -- -- 85
2020-03-30 01:00:00 4.3 13 Noroeste 33 Oeste 0 -- -- 86
2020-03-30 00:00:00 5.2 10 Oeste 29 Noroeste 0 -- -- 87
2020-03-29 23:00:00 6.1 9 Norte 26 Oeste 0 -- -- 87
2020-03-29 22:00:00 6.6 6 Noroeste 26 Oeste 0 -- -- 90
2020-03-29 21:00:00 7 15 Oeste 31 Oeste 0 -- -- 91
2020-03-29 20:00:00 7.1 10 Oeste 26 Oeste 0 -- -- 92
2020-03-29 19:00:00 7.8 11 Oeste 24 Oeste 0 -- -- 88
2020-03-29 18:00:00 9.1 10 Oeste 25 Oeste 0 -- -- 82
2020-03-29 17:00:00 9 7 Oeste 30 Sudoeste 0 -- -- 81
2020-03-29 16:00:00 10.1 11 Noroeste 24 Oeste 0 -- -- 73
2020-03-29 15:00:00 12.3 9 Oeste 29 Oeste 0 -- -- 66
2020-03-29 14:00:00 10.6 10 Oeste 36 Nordeste 0 -- -- 68
2020-03-29 13:00:00 11.5 7 Noroeste 27 Oeste 0 -- -- 60
2020-03-29 12:00:00 11.4 11 Oeste 32 Noroeste 0 -- -- 66
2020-03-29 11:00:00 9.8 11 Oeste 30 Oeste 0 -- -- 72
2020-03-29 10:00:00 7.1 6 Noroeste 17 Oeste 0 -- -- 82
2020-03-29 09:00:00 3 4 Noroeste 12 Noroeste 0 -- -- 90
2020-03-29 08:00:00 2.1 5 Noroeste 12 Oeste 0 -- -- 90
2020-03-29 07:00:00 2.5 4 Noroeste 12 Oeste 0 -- -- 87
2020-03-29 06:00:00 2.6 4 Noroeste 12 Oeste 0 -- -- 86
2020-03-29 05:00:00 2.9 5 Noroeste 12 Noroeste 0 -- -- 86
2020-03-29 03:00:00 3 2 Norte 7 Oeste 0 -- -- 85
2020-03-29 01:00:00 4.2 3 Noroeste 10 Oeste 0 -- -- 81
2020-03-29 00:00:00 5.3 4 Norte 10 Noroeste 0 -- -- 79
2020-03-28 23:00:00 7.6 0 Calma 15 Noroeste 0 -- -- 69
2020-03-28 22:00:00 8 6 Noroeste 15 Oeste 0 -- -- 70
2020-03-28 21:00:00 8.5 5 Noroeste 16 Nordeste 0 -- -- 69
2020-03-28 20:00:00 11.3 4 Noroeste 24 Noroeste 0 -- -- 57
2020-03-28 19:00:00 13.3 10 Norte 23 Norte 0 -- -- 52
2020-03-28 18:00:00 15 13 Noroeste 25 Noroeste 0 -- -- 50
2020-03-28 17:00:00 16.7 9 Norte 23 Oeste 0 -- -- 49
2020-03-28 16:00:00 17.3 11 Oeste 26 Noroeste 0 -- -- 48
2020-03-28 15:00:00 17.9 6 Oeste 23 Oeste 0 -- -- 44
2020-03-28 14:00:00 17.6 7 Sudoeste 19 Nordeste 0 -- -- 41
2020-03-28 13:00:00 16.1 6 Oeste 13 Oeste 0 -- -- 47
2020-03-28 12:00:00 14.2 7 Sudoeste 12 Sur 0 -- -- 54
2020-03-28 11:00:00 10.6 3 Este 6 Este 0 -- -- 66
2020-03-28 10:00:00 6.6 2 Sudeste 5 Sur 0 -- -- 81
2020-03-28 09:00:00 2.1 2 Oeste 4 Sudoeste 0 -- -- 96
2020-03-28 08:00:00 -0.2 0 Calma 2 Sur 0 -- -- 96
2020-03-28 07:00:00 -0.5 0 Calma 2 Sur 0 -- -- 95
2020-03-28 06:00:00 0 0 Calma 5 Norte 0 -- -- 94
2020-03-28 05:00:00 0.2 0 Calma 4 Norte 0 -- -- 94
2020-03-28 04:00:00 0.8 0 Calma 4 Norte 0 -- -- 93
2020-03-28 03:00:00 1.4 0 Calma 5 Norte 0 -- -- 92
2020-03-28 02:00:00 1.9 3 Noroeste 5 Norte 0 -- -- 91
2020-03-28 01:00:00 2.8 3 Norte 6 Norte 0 -- -- 90
2020-03-28 00:00:00 3.9 0 Calma 12 Noroeste 0 -- -- 85
2020-03-27 23:00:00 4.9 5 Oeste 13 Oeste 0 -- -- 83
2020-03-27 22:00:00 6.6 5 Oeste 17 Oeste 0 -- -- 74
2020-03-27 21:00:00 8.4 2 Norte 21 Nordeste 0 -- -- 65
2020-03-27 20:00:00 9.5 5 Norte 29 Norte 0 -- -- 60
2020-03-27 19:00:00 10.7 10 Norte 25 Nordeste 0 -- -- 55
2020-03-27 18:00:00 12.4 10 Norte 22 Noroeste 0 -- -- 44
2020-03-27 17:00:00 13.5 8 Noroeste 20 Norte 0 -- -- 47
2020-03-27 16:00:00 14.2 6 Norte 19 Nordeste 0 -- -- 41
2020-03-27 15:00:00 14.2 6 Este 19 Nordeste 0 -- -- 39
2020-03-27 14:00:00 13.5 6 Norte 19 Este 0 -- -- 44
2020-03-27 13:00:00 13.1 11 Nordeste 22 Nordeste 0 -- -- 37
2020-03-27 12:00:00 11.7 8 Norte 22 Nordeste 0 -- -- 49
2020-03-27 11:00:00 9.5 4 Sudoeste 12 Sudoeste 0 -- -- 63
2020-03-27 10:00:00 5.4 4 Oeste 10 Oeste 0 -- -- 75
2020-03-27 09:00:00 1.5 0 Calma 4 Noroeste 0 -- -- 92
2020-03-27 08:00:00 -1 0 Calma 2 Norte 0 -- -- 94
2020-03-27 07:00:00 -1.8 0 Calma 2 Oeste 0 -- -- 93
2020-03-27 06:00:00 -1.5 0 Calma 2 Noroeste 0 -- -- 93
2020-03-27 05:00:00 -0.9 0 Calma 4 Norte 0 -- -- 92
2020-03-27 04:00:00 -0.5 2 Noroeste 4 Norte 0 -- -- 90
2020-03-27 03:00:00 0.4 0 Calma 4 Nordeste 0 -- -- 89
2020-03-27 02:00:00 0.5 0 Calma 4 Norte 0 -- -- 87
2020-03-27 01:00:00 0.9 0 Calma 4 Nordeste 0 -- -- 87
2020-03-27 00:00:00 1.8 3 Norte 6 Noroeste 0 -- -- 82
2020-03-26 23:00:00 2.3 2 Norte 13 Noroeste 0 -- -- 79
2020-03-26 22:00:00 3.2 8 Oeste 17 Oeste 0 -- -- 76
2020-03-26 21:00:00 4 4 Noroeste 14 Noroeste 0 -- -- 70
2020-03-26 20:00:00 5.1 6 Oeste 15 Noroeste 0 -- -- 66
2020-03-26 19:00:00 6.5 7 Noroeste 23 Oeste 0 -- -- 58
2020-03-26 18:00:00 8.8 6 Norte 33 Oeste 0 -- -- 47
2020-03-26 17:00:00 9.5 13 Noroeste 36 Norte 0 -- -- 45
2020-03-26 16:00:00 10.1 13 Noroeste 46 Oeste 0 -- -- 46
2020-03-26 15:00:00 10.3 15 Oeste 39 Oeste 0 -- -- 50
2020-03-26 14:00:00 9.8 17 Noroeste 45 Oeste 0 -- -- 48
2020-03-26 13:00:00 9.7 21 Noroeste 46 Norte 0 -- -- 50
2020-03-26 12:00:00 9.2 16 Norte 37 Norte 0 -- -- 51
2020-03-26 11:00:00 8.7 17 Noroeste 37 Noroeste 0 -- -- 60
2020-03-26 10:00:00 8.5 10 Noroeste 39 Oeste 0 -- -- 61
2020-03-26 09:00:00 7.6 5 Noroeste 38 Noroeste 0 -- -- 70
2020-03-26 08:00:00 7.4 10 Noroeste 23 Noroeste 0 -- -- 74
2020-03-26 07:00:00 7.1 5 Oeste 19 Norte 0 -- -- 78
2020-03-26 06:00:00 6.9 6 Oeste 29 Noroeste 0 -- -- 84
2020-03-26 05:00:00 6.8 6 Noroeste 22 Oeste 0 -- -- 87
2020-03-26 04:00:00 6.4 8 Noroeste 24 Oeste 0 -- -- 88
2020-03-26 03:00:00 5.9 12 Noroeste 24 Oeste 1 -- -- 89
2020-03-26 02:00:00 6.4 11 Oeste 25 Oeste 0 -- -- 81
2020-03-26 01:00:00 6.2 8 Noroeste 24 Noroeste 0 -- -- 77
2020-03-26 00:00:00 5.5 8 Noroeste 18 Oeste 0 -- -- 77
2020-03-25 23:00:00 5.3 4 Noroeste 23 Oeste 0 -- -- 75
2020-03-25 22:00:00 6.3 10 Oeste 27 Oeste 0 -- -- 73
2020-03-25 21:00:00 7.4 6 Noroeste 29 Norte 0 -- -- 73
2020-03-25 20:00:00 8.8 14 Norte 26 Norte 0 -- -- 72
2020-03-25 19:00:00 10.5 13 Norte 26 Norte 0 -- -- 65
2020-03-25 18:00:00 12.9 13 Noroeste 27 Norte 0 -- -- 59
2020-03-25 17:00:00 15.1 5 Nordeste 19 Sudeste 0 -- -- 60
2020-03-25 16:00:00 16.6 9 Sur 21 Sudeste 0 -- -- 57
2020-03-25 15:00:00 16.6 10 Sur 24 Sudeste 0 -- -- 56
2020-03-25 14:00:00 16 12 Sudeste 26 Sudeste 0 -- -- 59
2020-03-25 13:00:00 13.8 12 Este 31 Nordeste 0 -- -- 66
2020-03-25 12:00:00 13 8 Este 20 Este 0 -- -- 71
2020-03-25 11:00:00 10.4 10 Este 20 Este 0 -- -- 84
2020-03-25 10:00:00 7.1 0 Calma 4 Sur 0 -- -- 98
2020-03-25 09:00:00 4.2 0 Calma 3 Sur 0 -- -- 99
2020-03-25 08:00:00 2.5 0 Calma 2 Sur 0 -- -- 98
2020-03-25 07:00:00 1.7 0 Calma 2 Noroeste 0 -- -- 97
2020-03-25 06:00:00 2.2 0 Calma 6 Norte 0 -- -- 97
2020-03-25 05:00:00 2.6 2 Norte 4 Norte 0 -- -- 96
2020-03-25 04:00:00 2.8 2 Norte 4 Norte 0 -- -- 96
2020-03-25 03:00:00 3.4 3 Noroeste 6 Norte 0 -- -- 95
2020-03-25 02:00:00 4.3 0 Calma 4 Norte 0 -- -- 93
2020-03-25 01:00:00 5 0 Calma 4 Norte 0 -- -- 91
2020-03-25 00:00:00 6.4 0 Calma 8 Nordeste 0 -- -- 90
2020-03-24 23:00:00 7.6 0 Calma 4 Noroeste 0 -- -- 85
2020-03-24 22:00:00 9.7 0 Calma 11 Este 0 -- -- 78
2020-03-24 21:00:00 12 3 Sur 20 Noroeste 0 -- -- 70
2020-03-24 20:00:00 13.9 3 Este 19 Noroeste 0 -- -- 65
2020-03-24 19:00:00 15 6 Norte 17 Noroeste 0 -- -- 58
2020-03-24 18:00:00 16.7 6 Nordeste 24 Norte 0 -- -- 51
2020-03-24 17:00:00 17.5 9 Noroeste 21 Noroeste 0 -- -- 54
2020-03-24 16:00:00 17.5 4 Noroeste 13 Sudeste 0 -- -- 56
2020-03-24 15:00:00 18.1 9 Sudeste 15 Este 0 -- -- 53
2020-03-24 14:00:00 17.4 5 Sudeste 18 Sudeste 0 -- -- 58
2020-03-24 13:00:00 17.2 9 Sudeste 15 Sur 0 -- -- 57
2020-03-24 12:00:00 14.7 3 Sudeste 13 Sudeste 0 -- -- 68
2020-03-24 11:00:00 13.1 4 Este 13 Este 0 -- -- 73
2020-03-24 10:00:00 12.1 5 Este 9 Este 0 -- -- 81
2020-03-24 09:00:00 9.4 3 Norte 9 Nordeste 0 -- -- 95
2020-03-24 08:00:00 8.2 5 Norte 9 Norte 0 -- -- 96
2020-03-24 07:00:00 8 3 Norte 10 Norte 0 -- -- 94
2020-03-24 06:00:00 8.7 5 Norte 10 Norte 0 -- -- 95
2020-03-24 05:00:00 9 3 Norte 10 Norte 0 -- -- 94
2020-03-24 04:00:00 9 3 Nordeste 8 Norte 0 -- -- 96
2020-03-24 03:00:00 8.9 4 Norte 8 Norte 0 -- -- 97
2020-03-24 02:00:00 8.5 2 Noroeste 6 Norte 0 -- -- 97
2020-03-24 01:00:00 8.4 3 Norte 6 Norte 0 -- -- 96
2020-03-24 00:00:00 9.1 2 Norte 4 Norte 0 -- -- 95
2020-03-23 23:00:00 10.2 0 Calma 8 Este 0 -- -- 94
2020-03-23 22:00:00 10.7 2 Sur 5 Nordeste 0 -- -- 93
2020-03-23 21:00:00 11.2 0 Calma 6 Este 0 -- -- 91
2020-03-23 20:00:00 11.5 0 Calma 8 Nordeste 0 -- -- 90
2020-03-23 19:00:00 12.5 3 Noroeste 17 Nordeste 1.2 -- -- 84
2020-03-23 18:00:00 13.9 11 Norte 24 Norte 0 -- -- 71
2020-03-23 17:00:00 14.8 8 Norte 14 Norte 0 -- -- 67
2020-03-23 16:00:00 16.6 8 Sur 14 Sur 0 -- -- 56
2020-03-23 15:00:00 15.5 6 Sudeste 24 Sur 0 -- -- 58
2020-03-23 14:00:00 16.3 5 Oeste 13 Norte 0 -- -- 60
2020-03-23 13:00:00 14.6 8 Norte 14 Norte 0 -- -- 67
2020-03-23 12:00:00 14.1 6 Norte 13 Noroeste 0 -- -- 72
2020-03-23 11:00:00 12.8 5 Noroeste 11 Nordeste 0 -- -- 75
2020-03-23 10:00:00 11.5 0 Calma 5 Sur 0 -- -- 89
2020-03-23 09:00:00 8.7 2 Sur 4 Sur 0 -- -- 95
2020-03-23 08:00:00 7.9 0 Calma 3 Oeste 0 -- -- 96
2020-03-23 07:00:00 7.7 0 Calma 2 Noroeste 0 -- -- 95
2020-03-23 06:00:00 8 0 Calma 3 Noroeste 0 -- -- 94
2020-03-23 05:00:00 8.2 0 Calma 2 Sur 0 -- -- 92
2020-03-23 04:00:00 8.4 2 Sudoeste 4 Sur 0 -- -- 90
2020-03-23 03:00:00 8.4 0 Calma 4 Sudoeste 0 -- -- 89
2020-03-23 02:00:00 8.4 0 Calma 5 Sudoeste 0 -- -- 90
2020-03-23 01:00:00 8.4 0 Calma 4 Nordeste 0 -- -- 89
2020-03-23 00:00:00 8.7 0 Calma 8 Oeste 0 -- -- 87
2020-03-22 23:00:00 9.9 3 Noroeste 6 Oeste 0 -- -- 83
2020-03-22 22:00:00 10.7 2 Noroeste 12 Noroeste 0 -- -- 80
2020-03-22 21:00:00 11.1 4 Norte 12 Noroeste 0 -- -- 79
2020-03-22 20:00:00 11.6 5 Noroeste 18 Noroeste 0 -- -- 78
2020-03-22 19:00:00 12.2 7 Noroeste 24 Noroeste 0 -- -- 75
2020-03-22 18:00:00 13.8 12 Noroeste 25 Noroeste 0 -- -- 71
2020-03-22 17:00:00 16.4 9 Nordeste 19 Norte 0 -- -- 58
2020-03-22 16:00:00 17.5 5 Norte 20 Norte 0 -- -- 54
2020-03-22 15:00:00 17.8 5 Este 15 Norte 0 -- -- 52
2020-03-22 14:00:00 16.9 8 Norte 32 Noroeste 0 -- -- 51
2020-03-22 13:00:00 17.2 3 Sudeste 15 Sudeste 0 -- -- 54
2020-03-22 12:00:00 14.8 2 Este 7 Sudeste 0 -- -- 63
2020-03-22 11:00:00 10.6 3 Este 6 Este 0 -- -- 77
2020-03-22 10:00:00 6.3 2 Sur 4 Oeste 0 -- -- 94
2020-03-22 09:00:00 4.7 0 Calma 4 Oeste 0 -- -- 97
2020-03-22 08:00:00 2.8 0 Calma 2 Sudeste 0 -- -- 97
2020-03-22 07:00:00 2.6 0 Calma 3 Sudeste 0 -- -- 96
2020-03-22 06:00:00 2.1 0 Calma 4 Noroeste 0 -- -- 94
2020-03-22 05:00:00 2.6 0 Calma 5 Este 0 -- -- 93
2020-03-22 04:00:00 3.5 0 Calma 8 Nordeste 0 -- -- 93
2020-03-22 03:00:00 3.2 0 Calma 2 Sur 0 -- -- 92
2020-03-22 02:00:00 4.4 0 Calma 9 Nordeste 0 -- -- 89
2020-03-22 01:00:00 5.9 3 Nordeste 7 Nordeste 0 -- -- 86
2020-03-22 00:00:00 6 0 Calma 7 Norte 0 -- -- 85
2020-03-21 23:00:00 6.8 0 Calma 5 Norte 0 -- -- 83
2020-03-21 22:00:00 7.4 0 Calma 8 Norte 0 -- -- 80
2020-03-21 21:00:00 8.5 3 Norte 5 Norte 0 -- -- 76
2020-03-21 20:00:00 10 3 Norte 9 Este 0 -- -- 71
2020-03-21 19:00:00 14.5 5 Este 10 Sudeste 0 -- -- 51
2020-03-21 18:00:00 16.4 6 Sur 19 Sudeste 0 -- -- 47
2020-03-21 17:00:00 17.2 11 Sudeste 22 Sudeste 0 -- -- 46
2020-03-21 16:00:00 17.4 13 Sudeste 31 Sudeste 0 -- -- 49
2020-03-21 15:00:00 17 13 Sur 27 Sudeste 0 -- -- 50
2020-03-21 14:00:00 16.1 12 Sur 25 Sudeste 0 -- -- 54
2020-03-21 13:00:00 15.7 11 Sudeste 27 Sudeste 0 -- -- 54
2020-03-21 12:00:00 14.9 7 Sudeste 28 Este 0 -- -- 56
2020-03-21 11:00:00 12.9 13 Este 27 Nordeste 0 -- -- 58
2020-03-21 10:00:00 11.2 8 Este 28 Este 0 -- -- 64
2020-03-21 09:00:00 9.3 7 Este 15 Este 0 -- -- 72
2020-03-21 08:00:00 8.3 8 Este 18 Este 0 -- -- 76
2020-03-21 07:00:00 8.2 5 Este 16 Nordeste 0 -- -- 76
2020-03-21 06:00:00 9.2 7 Este 24 Este 0 -- -- 71
2020-03-21 05:00:00 9.8 6 Este 26 Este 0 -- -- 73
2020-03-21 04:00:00 10 7 Este 15 Este 0 -- -- 73
2020-03-21 03:00:00 10.3 4 Este 12 Sudeste 0 -- -- 73
2020-03-21 02:00:00 10.5 3 Sudeste 23 Sur 0 -- -- 73
2020-03-21 01:00:00 11.3 9 Sudeste 15 Sudeste 0 -- -- 70
2020-03-21 00:00:00 11.5 3 Este 23 Sudeste 0 -- -- 70
2020-03-20 23:00:00 11.4 6 Este 17 Sudeste 0 -- -- 70
2020-03-20 22:00:00 12.4 11 Este 20 Este 0 -- -- 67
2020-03-20 21:00:00 12.4 5 Este 28 Sudeste 0 -- -- 68
2020-03-20 20:00:00 12.6 4 Este 32 Sur 0 -- -- 67
2020-03-20 19:00:00 13.6 3 Norte 30 Sudeste 0 -- -- 64
2020-03-20 18:00:00 15.3 10 Sudeste 29 Este 0 -- -- 56
2020-03-20 17:00:00 16.3 17 Sudeste 36 Sur 0 -- -- 54
2020-03-20 16:00:00 16.9 15 Sur 37 Sur 0 -- -- 55
2020-03-20 15:00:00 16.2 18 Sur 37 Sudeste 0 -- -- 58
2020-03-20 14:00:00 15.5 19 Sur 35 Sudeste 0 -- -- 60
2020-03-20 13:00:00 14.9 18 Sur 34 Sudoeste 0 -- -- 59
2020-03-20 12:00:00 14.1 15 Sur 45 Sur 0 -- -- 59
2020-03-20 11:00:00 13 13 Sudeste 34 Sudeste 0 -- -- 60
2020-03-20 10:00:00 11.4 10 Sudeste 24 Sudeste 0 -- -- 65
2020-03-20 09:00:00 10.4 5 Este 18 Este 0 -- -- 68
2020-03-20 08:00:00 9.6 7 Este 32 Sudeste 0 -- -- 70
2020-03-20 07:00:00 9.7 9 Sudeste 29 Sudeste 0 -- -- 69
2020-03-20 06:00:00 10.2 10 Este 28 Este 0 -- -- 67
2020-03-20 05:00:00 10.6 8 Sudeste 25 Sudeste 0 -- -- 66
2020-03-20 04:00:00 11.1 13 Sudeste 25 Sudeste 0 -- -- 63
2020-03-20 03:00:00 11.8 10 Sudeste 28 Este 0 -- -- 63
2020-03-20 02:00:00 12.3 12 Sudeste 23 Sudeste 0 -- -- 66
2020-03-20 01:00:00 12.7 7 Sudeste 35 Sudeste 0 -- -- 69
2020-03-20 00:00:00 13.1 10 Sudeste 36 Este 0 -- -- 69
2020-03-19 23:00:00 13.6 15 Sudeste 30 Sudeste 0 -- -- 65
2020-03-19 22:00:00 13.7 10 Sudeste 30 Este 0 -- -- 64
2020-03-19 21:00:00 14.4 13 Sudeste 29 Este 0 -- -- 62
2020-03-19 20:00:00 15 10 Sudeste 36 Sudeste 0 -- -- 61
2020-03-19 19:00:00 15.8 15 Sudeste 27 Sudeste 0 -- -- 51
2020-03-19 18:00:00 16.8 14 Sudeste 30 Sudeste 0 -- -- 60
2020-03-19 17:00:00 18.1 15 Sudeste 33 Sudeste 0 -- -- 54
2020-03-19 16:00:00 18.8 18 Sur 31 Sur 0 -- -- 54
2020-03-19 15:00:00 19.3 17 Sur 35 Sur 0 -- -- 53
2020-03-19 14:00:00 19.1 14 Sur 31 Sudeste 0 -- -- 54
2020-03-19 13:00:00 18.8 9 Sudeste 31 Sudeste 0 -- -- 54
2020-03-19 12:00:00 17.6 13 Sudeste 23 Este 0 -- -- 58
2020-03-19 11:00:00 15.7 7 Sudeste 18 Este 0 -- -- 72
2020-03-19 10:00:00 13.7 3 Sudeste 13 Este 0 -- -- 78
2020-03-19 09:00:00 10.6 4 Sur 9 Sudeste 0 -- -- 95
2020-03-19 08:00:00 8.7 0 Calma 3 Norte 0 -- -- 95
2020-03-19 07:00:00 8.7 0 Calma 3 Sudeste 0 -- -- 93
2020-03-19 06:00:00 10.1 0 Calma 8 Sudeste 0 -- -- 90
2020-03-19 05:00:00 10.9 3 Sur 9 Sudeste 0 -- -- 87
2020-03-19 04:00:00 11.3 3 Sudeste 13 Este 0 -- -- 88
2020-03-19 03:00:00 11.7 7 Este 14 Este 0 -- -- 86
2020-03-19 02:00:00 11.8 6 Este 17 Este 0 -- -- 85
2020-03-19 01:00:00 11.5 8 Este 20 Este 0 -- -- 85
2020-03-19 00:00:00 11.7 11 Este 18 Este 0 -- -- 85
2020-03-18 23:00:00 12.2 10 Este 21 Este 0 -- -- 81
2020-03-18 22:00:00 12.7 11 Este 17 Este 0 -- -- 79
2020-03-18 21:00:00 13.3 10 Este 17 Nordeste 0 -- -- 77
2020-03-18 20:00:00 14 10 Este 16 Este 0 -- -- 74
2020-03-18 19:00:00 15.8 6 Este 13 Este 0 -- -- 65
2020-03-18 18:00:00 17.1 6 Este 19 Este 0 -- -- 59
2020-03-18 17:00:00 17.8 11 Este 19 Este 0 -- -- 59
2020-03-18 16:00:00 17.6 12 Este 22 Este 0 -- -- 63
2020-03-18 15:00:00 17.5 13 Este 25 Este 0 -- -- 64
2020-03-18 14:00:00 16.7 13 Este 27 Este 0 -- -- 69
2020-03-18 13:00:00 15.2 11 Este 20 Este 0 -- -- 76
2020-03-18 12:00:00 14.8 9 Este 18 Sudeste 0 -- -- 77
2020-03-18 11:00:00 10.9 3 Oeste 14 Sudeste 0 -- -- 94
2020-03-18 10:00:00 9.4 3 Noroeste 13 Nordeste 0.2 -- -- 97
2020-03-18 09:00:00 7.6 5 Norte 14 Nordeste 0 -- -- 99
2020-03-18 08:00:00 6.7 3 Norte 11 Norte 0 -- -- 98
2020-03-18 07:00:00 6.6 3 Norte 14 Este 0 -- -- 98
2020-03-18 06:00:00 6.8 4 Norte 9 Norte 0 -- -- 98
2020-03-18 05:00:00 6.7 0 Calma 10 Norte 0 -- -- 98
2020-03-18 04:00:00 7.1 4 Norte 12 Norte 0 -- -- 98
2020-03-18 03:00:00 7.5 4 Nordeste 15 Norte 0 -- -- 97
2020-03-18 02:00:00 7.7 4 Nordeste 12 Norte 0 -- -- 97
2020-03-18 01:00:00 8.2 4 Nordeste 10 Norte 0 -- -- 97
2020-03-18 00:00:00 8.6 4 Nordeste 10 Nordeste 0 -- -- 97
2020-03-17 23:00:00 8.4 3 Nordeste 6 Norte 0 -- -- 97
2020-03-17 22:00:00 8.7 0 Calma 6 Norte 0 -- -- 95
2020-03-17 21:00:00 9.3 0 Calma 5 Nordeste 0 -- -- 95
2020-03-17 20:00:00 9.8 2 Norte 5 Norte 0 -- -- 93
2020-03-17 19:00:00 11.3 2 Norte 3 Sudoeste 0 -- -- 88
2020-03-17 18:00:00 12.2 0 Calma 4 Sudeste 0 -- -- 85
2020-03-17 17:00:00 12 0 Calma 4 Sur 0 -- -- 87
2020-03-17 16:00:00 12.1 2 Sur 4 Oeste 0 -- -- 84
2020-03-17 15:00:00 12.1 0 Calma 9 Oeste 0 -- -- 83
2020-03-17 14:00:00 11.5 2 Oeste 9 Oeste 0 -- -- 88
2020-03-17 13:00:00 10.9 5 Oeste 13 Sudoeste 0 -- -- 88
2020-03-17 12:00:00 10.5 5 Oeste 15 Oeste 0 -- -- 90
2020-03-17 11:00:00 10.2 8 Oeste 16 Oeste 0 -- -- 90
2020-03-17 10:00:00 9.8 3 Sudoeste 9 Oeste 0 -- -- 92
2020-03-17 09:00:00 9.7 3 Oeste 11 Sudoeste 0 -- -- 91
2020-03-17 08:00:00 9.5 2 Noroeste 12 Noroeste 0 -- -- 89
2020-03-17 07:00:00 9.4 4 Norte 14 Oeste 0 -- -- 90
2020-03-17 06:00:00 9.1 5 Oeste 14 Oeste 0 -- -- 92
2020-03-17 05:00:00 9.1 6 Oeste 17 Noroeste 0 -- -- 91
2020-03-17 04:00:00 8.8 5 Noroeste 15 Oeste 0 -- -- 93
2020-03-17 03:00:00 8.7 6 Oeste 15 Noroeste 0 -- -- 92
2020-03-17 02:00:00 9 5 Oeste 19 Noroeste 0 -- -- 90
2020-03-17 01:00:00 8.8 6 Noroeste 23 Oeste 0 -- -- 91
2020-03-17 00:00:00 9 8 Oeste 15 Oeste 0 -- -- 89
2020-03-16 23:00:00 8.7 6 Oeste 14 Oeste 0 -- -- 90
2020-03-16 22:00:00 8.7 7 Oeste 18 Noroeste 0 -- -- 89
2020-03-16 21:00:00 8.6 4 Noroeste 11 Oeste 0 -- -- 89
2020-03-16 20:00:00 8.5 4 Oeste 17 Oeste 0 -- -- 90
2020-03-16 19:00:00 8.3 5 Oeste 19 Noroeste 0 -- -- 91
2020-03-16 18:00:00 8.2 8 Noroeste 21 Oeste 0 -- -- 91
2020-03-16 17:00:00 8.1 6 Oeste 22 Sudoeste 0 -- -- 93
2020-03-16 16:00:00 7.3 8 Oeste 18 Oeste 0.2 -- -- 95
2020-03-16 15:00:00 7.3 7 Oeste 16 Oeste 0 -- -- 95
2020-03-16 14:00:00 7.2 6 Oeste 16 Oeste 1.2 -- -- 95
2020-03-16 13:00:00 6.9 5 Noroeste 16 Oeste 1.8 -- -- 95
2020-03-16 12:00:00 6.3 6 Oeste 14 Noroeste 2 -- -- 95
2020-03-16 11:00:00 6 6 Noroeste 22 Sudoeste 0.8 -- -- 94
2020-03-16 10:00:00 5.4 8 Oeste 23 Oeste 0.8 -- -- 92
2020-03-16 09:00:00 5.2 8 Noroeste 21 Noroeste 1.4 -- -- 91
2020-03-16 08:00:00 4.9 6 Noroeste 19 Oeste 2.2 -- -- 92
2020-03-16 07:00:00 5.3 9 Noroeste 21 Oeste 2 -- -- 91
2020-03-16 06:00:00 5.5 8 Noroeste 17 Oeste 2 -- -- 92
2020-03-16 05:00:00 5.7 6 Noroeste 15 Oeste 2.2 -- -- 92
2020-03-16 04:00:00 5.9 6 Oeste 12 Noroeste 3.8 -- -- 93
2020-03-16 03:00:00 5.8 6 Noroeste 13 Noroeste 3.2 -- -- 93
2020-03-16 02:00:00 6.1 5 Oeste 19 Oeste 1.6 -- -- 91
2020-03-16 01:00:00 6.7 5 Noroeste 16 Oeste 3.6 -- -- 93
2020-03-16 00:00:00 7.5 6 Oeste 12 Oeste 2.6 -- -- 93
2020-03-15 23:00:00 8.1 3 Norte 14 Noroeste 0.6 -- -- 90
2020-03-15 22:00:00 8.4 5 Oeste 18 Sur 2.8 -- -- 90
2020-03-15 21:00:00 8.7 6 Sudoeste 22 Norte 7.6 -- -- 88
2020-03-15 20:00:00 10 10 Norte 21 Norte 2.6 -- -- 89
2020-03-15 19:00:00 11.8 11 Norte 24 Norte 0.4 -- -- 85
2020-03-15 18:00:00 15.5 3 Nordeste 28 Sur 0.4 -- -- 73
2020-03-15 17:00:00 17.3 14 Sur 31 Sur 0 -- -- 64
2020-03-15 16:00:00 18.5 15 Sur 29 Sudeste 0 -- -- 54
2020-03-15 15:00:00 20.3 15 Sur 31 Sudeste 0 -- -- 50
2020-03-15 14:00:00 19.5 13 Sur 29 Sudeste 0 -- -- 51
2020-03-15 13:00:00 17.8 8 Sudeste 21 Nordeste 0 -- -- 54
2020-03-15 12:00:00 15.4 10 Nordeste 31 Nordeste 0 -- -- 59
2020-03-15 11:00:00 13.8 10 Nordeste 27 Nordeste 0 -- -- 61
2020-03-15 10:00:00 10.9 8 Este 19 Este 0 -- -- 72
2020-03-15 09:00:00 7.7 6 Este 20 Este 0 -- -- 80
2020-03-15 08:00:00 3.4 0 Calma 9 Este 0 -- -- 93
2020-03-15 07:00:00 1.9 4 Noroeste 9 Norte 0 -- -- 95
2020-03-15 06:00:00 1.5 3 Norte 6 Norte 0 -- -- 93
2020-03-15 05:00:00 1.9 0 Calma 19 Nordeste 0 -- -- 90
2020-03-15 04:00:00 4.1 6 Este 17 Este 0 -- -- 91
2020-03-15 03:00:00 2.8 5 Norte 15 Norte 0 -- -- 93
2020-03-15 02:00:00 2.8 4 Nordeste 9 Nordeste 0 -- -- 94
2020-03-15 01:00:00 2.8 0 Calma 5 Norte 0 -- -- 91
2020-03-15 00:00:00 3.8 3 Norte 5 Norte 0 -- -- 91
2020-03-14 23:00:00 4.7 0 Calma 4 Sur 0 -- -- 86
2020-03-14 22:00:00 7 0 Calma 13 Norte 0 -- -- 79
2020-03-14 21:00:00 9.2 5 Noroeste 19 Norte 0 -- -- 72
2020-03-14 20:00:00 10.6 13 Norte 23 Norte 0 -- -- 67
2020-03-14 19:00:00 11.8 13 Norte 22 Norte 0 -- -- 62
2020-03-14 18:00:00 13.6 11 Norte 25 Nordeste 0 -- -- 55
2020-03-14 17:00:00 14.4 11 Norte 26 Nordeste 0 -- -- 54
2020-03-14 16:00:00 14.5 12 Nordeste 28 Nordeste 0 -- -- 54
2020-03-14 15:00:00 14.3 10 Nordeste 26 Nordeste 0 -- -- 55
2020-03-14 14:00:00 14 8 Norte 26 Oeste 0 -- -- 57
2020-03-14 13:00:00 13.2 12 Oeste 34 Oeste 0 -- -- 61
2020-03-14 12:00:00 12.3 10 Oeste 23 Oeste 0 -- -- 63
2020-03-14 11:00:00 11 11 Oeste 24 Oeste 0 -- -- 65
2020-03-14 10:00:00 8 10 Oeste 18 Oeste 0 -- -- 75
2020-03-14 09:00:00 4.8 6 Noroeste 17 Oeste 0 -- -- 89
2020-03-14 08:00:00 3.2 8 Noroeste 17 Noroeste 0 -- -- 92
2020-03-14 07:00:00 3.6 11 Noroeste 19 Oeste 0 -- -- 90
2020-03-14 06:00:00 4.1 7 Oeste 14 Sudoeste 0 -- -- 89
2020-03-14 05:00:00 5.7 5 Noroeste 14 Noroeste 0 -- -- 83
2020-03-14 04:00:00 6.8 3 Noroeste 15 Oeste 0 -- -- 81
2020-03-14 03:00:00 7.1 6 Noroeste 15 Oeste 0 -- -- 80
2020-03-14 02:00:00 7.1 7 Noroeste 15 Oeste 0 -- -- 82
2020-03-14 01:00:00 7.1 6 Oeste 16 Oeste 0 -- -- 82
2020-03-14 00:00:00 7.5 7 Noroeste 19 Oeste 0 -- -- 80
2020-03-13 23:00:00 7.2 6 Noroeste 24 Oeste 0 -- -- 81
2020-03-13 22:00:00 8 9 Oeste 21 Oeste 0 -- -- 80
2020-03-13 21:00:00 8.4 3 Norte 15 Oeste 0 -- -- 80
2020-03-13 20:00:00 8.6 5 Noroeste 13 Oeste 0 -- -- 79
2020-03-13 19:00:00 9.2 6 Oeste 14 Oeste 0 -- -- 75
2020-03-13 18:00:00 10.2 4 Noroeste 17 Norte 0 -- -- 73
2020-03-13 17:00:00 10.5 5 Norte 28 Noroeste 0 -- -- 72
2020-03-13 16:00:00 11 13 Noroeste 31 Noroeste 0 -- -- 71
2020-03-13 15:00:00 12 6 Norte 17 Oeste 0 -- -- 69
2020-03-13 14:00:00 11.9 4 Norte 23 Noroeste 0 -- -- 66
2020-03-13 13:00:00 11.9 9 Norte 30 Noroeste 0 -- -- 66
2020-03-13 12:00:00 11.9 10 Norte 22 Noroeste 0 -- -- 65
2020-03-13 11:00:00 11.1 11 Norte 26 Noroeste 0 -- -- 71
2020-03-13 10:00:00 10 6 Noroeste 16 Norte 0 -- -- 78
2020-03-13 09:00:00 8.8 5 Noroeste 15 Noroeste 0 -- -- 81
2020-03-13 08:00:00 8.4 7 Noroeste 19 Norte 0 -- -- 83
2020-03-13 07:00:00 8.1 6 Noroeste 14 Noroeste 0 -- -- 85
2020-03-13 06:00:00 8.1 3 Oeste 24 Oeste 0 -- -- 83
2020-03-13 05:00:00 8.2 3 Noroeste 27 Noroeste 0 -- -- 81
2020-03-13 04:00:00 8.3 9 Noroeste 34 Nordeste 0 -- -- 80
2020-03-13 03:00:00 9 4 Norte 15 Norte 0 -- -- 87
2020-03-13 02:00:00 9.6 6 Oeste 17 Oeste 0 -- -- 88
2020-03-13 01:00:00 10.1 4 Norte 21 Norte 0 -- -- 85
2020-03-13 00:00:00 10.1 8 Oeste 17 Oeste 0 -- -- 87
2020-03-12 23:00:00 10.8 6 Noroeste 32 Noroeste 0 -- -- 87
2020-03-12 22:00:00 11.2 10 Noroeste 34 Noroeste 0 -- -- 82
2020-03-12 21:00:00 11.2 16 Norte 35 Noroeste 0 -- -- 82
2020-03-12 20:00:00 11.5 13 Norte 36 Norte 0 -- -- 82
2020-03-12 19:00:00 11.5 13 Noroeste 33 Norte 0 -- -- 84
2020-03-12 18:00:00 12.2 9 Norte 22 Norte 0 -- -- 82
2020-03-12 17:00:00 12.5 12 Noroeste 27 Noroeste 0 -- -- 82
2020-03-12 16:00:00 13.4 9 Norte 24 Noroeste 0 -- -- 79
2020-03-12 15:00:00 14 9 Norte 22 Oeste 0 -- -- 78
2020-03-12 14:00:00 14 12 Noroeste 23 Oeste 0 -- -- 79
2020-03-12 13:00:00 13.9 12 Noroeste 20 Norte 0 -- -- 79
2020-03-12 12:00:00 13.1 8 Oeste 15 Oeste 0 -- -- 83
2020-03-12 11:00:00 12.3 7 Oeste 16 Oeste 0 -- -- 88
2020-03-12 10:00:00 11.3 9 Oeste 19 Oeste 0 -- -- 91
2020-03-12 09:00:00 10.7 8 Oeste 18 Oeste 0 -- -- 94
2020-03-12 08:00:00 10.1 4 Oeste 10 Oeste 0 -- -- 96
2020-03-12 07:00:00 9.3 0 Calma 3 Oeste 0 -- -- 97
2020-03-12 06:00:00 9 0 Calma 4 Oeste 0 -- -- 96
2020-03-12 05:00:00 8.6 0 Calma 4 Sur 0 -- -- 96
2020-03-12 04:00:00 8.7 0 Calma 2 Sur 0 -- -- 95
2020-03-12 03:00:00 9.3 0 Calma 4 Sur 0 -- -- 94
2020-03-12 02:00:00 9.7 0 Calma 4 Noroeste 0 -- -- 93
2020-03-12 01:00:00 10 0 Calma 7 Sur 0 -- -- 92
2020-03-12 00:00:00 10.1 0 Calma 4 Sudeste 0 -- -- 91
2020-03-11 23:00:00 10.4 0 Calma 3 Sur 0 -- -- 90
2020-03-11 22:00:00 11 0 Calma 6 Nordeste 0 -- -- 87
2020-03-11 21:00:00 12.7 0 Calma 8 Norte 0 -- -- 80
2020-03-11 20:00:00 14.8 0 Calma 9 Norte 0 -- -- 75
2020-03-11 19:00:00 17.9 4 Norte 9 Sudeste 0 -- -- 65
2020-03-11 18:00:00 22.7 8 Sudeste 17 Sudeste 0 -- -- 49
2020-03-11 17:00:00 23.1 8 Sur 16 Sudeste 0 -- -- 53
2020-03-11 16:00:00 23.4 8 Este 17 Sudeste 0 -- -- 46
2020-03-11 15:00:00 22.9 7 Este 15 Sudeste 0 -- -- 51
2020-03-11 14:00:00 22 6 Sudeste 15 Sudeste 0 -- -- 55
2020-03-11 13:00:00 19.9 5 Sur 9 Sur 0 -- -- 62
2020-03-11 12:00:00 16.6 2 Este 5 Sudeste 0 -- -- 69
2020-03-11 11:00:00 12.4 0 Calma 4 Este 0 -- -- 78
2020-03-11 10:00:00 7.5 0 Calma 4 Oeste 0 -- -- 96
2020-03-11 09:00:00 4.6 0 Calma 6 Norte 0 -- -- 98
2020-03-11 08:00:00 2.9 3 Norte 7 Norte 0 -- -- 98
2020-03-11 07:00:00 3.1 2 Norte 5 Norte 0 -- -- 98
2020-03-11 06:00:00 3.5 3 Norte 8 Norte 0 -- -- 97
2020-03-11 05:00:00 3.9 3 Norte 7 Norte 0 -- -- 97
2020-03-11 04:00:00 4 0 Calma 6 Norte 0 -- -- 96
2020-03-11 03:00:00 4.5 3 Norte 6 Norte 0 -- -- 96
2020-03-11 02:00:00 5 0 Calma 5 Norte 0 -- -- 95
2020-03-11 01:00:00 5.8 0 Calma 6 Norte 0 -- -- 94
2020-03-11 00:00:00 6.5 0 Calma 6 Noroeste 0 -- -- 93
2020-03-10 23:00:00 7.5 2 Noroeste 10 Nordeste 0 -- -- 91
2020-03-10 22:00:00 8.5 2 Noroeste 7 Norte 0 -- -- 88
2020-03-10 21:00:00 10.4 3 Norte 9 Norte 0 -- -- 83
2020-03-10 20:00:00 12.8 4 Norte 23 Norte 0 -- -- 69
2020-03-10 19:00:00 15.1 8 Norte 26 Norte 0 -- -- 57
2020-03-10 18:00:00 17 12 Norte 27 Norte 0 -- -- 38
2020-03-10 17:00:00 18 12 Noroeste 28 Norte 0 -- -- 37
2020-03-10 16:00:00 18.8 13 Norte 31 Norte 0 -- -- 26
2020-03-10 15:00:00 18.5 16 Norte 26 Noroeste 0 -- -- 30
2020-03-10 14:00:00 17.9 4 Sudoeste 10 Sudoeste 0 -- -- 54
2020-03-10 13:00:00 14.8 0 Calma 6 Sudoeste 0 -- -- 63
2020-03-10 12:00:00 12.3 0 Calma 5 Sudeste 0 -- -- 71
2020-03-10 11:00:00 9.5 0 Calma 4 Este 0 -- -- 83
2020-03-10 10:00:00 6.9 0 Calma 6 Norte 0 -- -- 96
2020-03-10 09:00:00 4.5 2 Norte 7 Norte 0 -- -- 97
2020-03-10 08:00:00 3.7 3 Norte 8 Nordeste 0 -- -- 97
2020-03-10 07:00:00 3.8 4 Norte 8 Norte 0 -- -- 97
2020-03-10 06:00:00 3.8 4 Norte 10 Norte 0 -- -- 97
2020-03-10 05:00:00 3.9 4 Norte 10 Nordeste 0 -- -- 97
2020-03-10 04:00:00 4.4 3 Norte 8 Norte 0 -- -- 96
2020-03-10 03:00:00 4.8 3 Norte 6 Norte 0 -- -- 95
2020-03-10 02:00:00 5.4 2 Noroeste 10 Norte 0 -- -- 93
2020-03-10 01:00:00 5.9 4 Norte 19 Noroeste 0 -- -- 90
2020-03-10 00:00:00 7.4 7 Noroeste 17 Norte 0 -- -- 86
2020-03-09 23:00:00 7 3 Noroeste 21 Oeste 0 -- -- 88
2020-03-09 22:00:00 7.8 5 Norte 22 Oeste 0 -- -- 85
2020-03-09 21:00:00 7.7 8 Noroeste 30 Oeste 0 -- -- 87
2020-03-09 20:00:00 7.6 8 Noroeste 23 Oeste 0.2 -- -- 88
2020-03-09 19:00:00 7.6 8 Noroeste 20 Noroeste 1.2 -- -- 90
2020-03-09 18:00:00 7.5 5 Noroeste 18 Oeste 1.2 -- -- 92
2020-03-09 17:00:00 8.2 10 Noroeste 29 Noroeste 1.2 -- -- 85
2020-03-09 16:00:00 8.5 8 Noroeste 22 Oeste 0.4 -- -- 87
2020-03-09 15:00:00 8.7 9 Noroeste 27 Oeste 1.4 -- -- 87
2020-03-09 14:00:00 9 10 Oeste 25 Oeste 0.4 -- -- 86
2020-03-09 13:00:00 8.9 8 Noroeste 32 Oeste 0.8 -- -- 85
2020-03-09 12:00:00 10.4 12 Noroeste 36 Oeste 0 -- -- 72
2020-03-09 11:00:00 9.1 7 Noroeste 24 Oeste 0 -- -- 80
2020-03-09 10:00:00 7.7 12 Noroeste 31 Noroeste 0.6 -- -- 85
2020-03-09 09:00:00 7.7 11 Noroeste 22 Oeste 0.2 -- -- 83
2020-03-09 08:00:00 7.3 11 Oeste 29 Oeste 0.4 -- -- 85
2020-03-09 07:00:00 7.3 6 Noroeste 24 Norte 0 -- -- 84
2020-03-09 06:00:00 6.9 7 Noroeste 24 Noroeste 0 -- -- 88
2020-03-09 05:00:00 7 4 Noroeste 23 Oeste 0.6 -- -- 88
2020-03-09 04:00:00 7.1 5 Noroeste 31 Norte 1 -- -- 87
2020-03-09 03:00:00 8.1 13 Noroeste 32 Oeste 0.4 -- -- 83
2020-03-09 02:00:00 8.5 6 Oeste 29 Norte 0 -- -- 82
2020-03-09 01:00:00 8.5 10 Noroeste 23 Sudoeste 0.2 -- -- 85
2020-03-09 00:00:00 9.1 8 Noroeste 19 Noroeste 0.2 -- -- 82
2020-03-08 23:00:00 8.9 4 Noroeste 14 Oeste 0 -- -- 87
2020-03-08 22:00:00 9.5 6 Noroeste 19 Oeste 0 -- -- 84
2020-03-08 21:00:00 10 0 Calma 30 Norte 0 -- -- 80
2020-03-08 20:00:00 10.5 15 Norte 40 Norte 0 -- -- 76
2020-03-08 19:00:00 11.2 22 Norte 40 Norte 0 -- -- 80
2020-03-08 18:00:00 13.3 13 Norte 21 Noroeste 0 -- -- 70
2020-03-08 17:00:00 14.9 4 Norte 13 Norte 0 -- -- 64
2020-03-08 16:00:00 14.9 4 Sur 9 Sudeste 0 -- -- 67
2020-03-08 15:00:00 13.5 5 Sur 10 Sudeste 0 -- -- 70
2020-03-08 14:00:00 13.3 5 Sudeste 10 Sur 0 -- -- 70
2020-03-08 13:00:00 10.3 2 Oeste 7 Sur 0 -- -- 91
2020-03-08 12:00:00 7.9 2 Noroeste 6 Oeste 0 -- -- 100
2020-03-08 11:00:00 4.8 2 Sur 6 Sudoeste 0 -- -- 100
2020-03-08 10:00:00 3.5 0 Calma 4 Oeste 0 -- -- 100
2020-03-08 09:00:00 2.5 0 Calma 6 Nordeste 0 -- -- 100
2020-03-08 08:00:00 1.9 3 Sur 6 Este 0 -- -- 100
2020-03-08 07:00:00 2 3 Sudeste 6 Este 0 -- -- 99
2020-03-08 06:00:00 2.2 2 Este 5 Este 0.2 -- -- 99
2020-03-08 05:00:00 2.5 2 Sudoeste 4 Sudoeste 0 -- -- 99
2020-03-08 04:00:00 2.7 2 Oeste 4 Oeste 0 -- -- 99
2020-03-08 03:00:00 2.7 3 Oeste 5 Oeste 0 -- -- 98
2020-03-08 02:00:00 3 0 Calma 4 Oeste 0 -- -- 98
2020-03-08 01:00:00 3.2 0 Calma 4 Sur 0 -- -- 98
2020-03-08 00:00:00 3.7 0 Calma 6 Norte 0 -- -- 97
2020-03-07 23:00:00 4.1 2 Norte 4 Norte 0 -- -- 96
2020-03-07 22:00:00 4.9 0 Calma 3 Este 0 -- -- 93
2020-03-07 21:00:00 6.9 3 Norte 17 Noroeste 0 -- -- 91
2020-03-07 20:00:00 8.2 2 Norte 13 Noroeste 0 -- -- 91
2020-03-07 19:00:00 8.7 8 Noroeste 26 Oeste 0 -- -- 85
2020-03-07 18:00:00 8.8 11 Noroeste 26 Noroeste 0 -- -- 84
2020-03-07 17:00:00 8.6 9 Oeste 22 Oeste 0.4 -- -- 90
2020-03-07 16:00:00 9.6 4 Noroeste 21 Oeste 0.2 -- -- 88
2020-03-07 15:00:00 9.9 8 Noroeste 21 Noroeste 0.8 -- -- 86
2020-03-07 14:00:00 9.8 9 Oeste 18 Oeste 0.8 -- -- 89
2020-03-07 13:00:00 9.6 10 Noroeste 22 Oeste 0 -- -- 88
2020-03-07 12:00:00 9.3 9 Noroeste 21 Noroeste 0 -- -- 90
2020-03-07 11:00:00 8.9 10 Oeste 22 Oeste 0.2 -- -- 90
2020-03-07 10:00:00 8 9 Noroeste 23 Oeste 0.6 -- -- 92
2020-03-07 09:00:00 7.6 10 Noroeste 23 Noroeste 1.6 -- -- 92
2020-03-07 08:00:00 6.5 5 Noroeste 28 Oeste 2.8 -- -- 91
2020-03-07 07:00:00 6.3 5 Noroeste 28 Oeste 0.8 -- -- 91
2020-03-07 06:00:00 6.1 9 Noroeste 24 Noroeste 0.8 -- -- 89
2020-03-07 05:00:00 5.7 5 Noroeste 14 Noroeste 0.4 -- -- 89
2020-03-07 04:00:00 4.8 6 Noroeste 22 Oeste 2.2 -- -- 91
2020-03-07 03:00:00 4.4 6 Norte 21 Oeste 3.2 -- -- 91
2020-03-07 02:00:00 4.8 5 Oeste 18 Oeste 1.4 -- -- 90
2020-03-07 01:00:00 5.1 5 Noroeste 15 Noroeste 0.6 -- -- 88
2020-03-07 00:00:00 4.8 13 Oeste 30 Oeste 0.8 -- -- 87
2020-03-06 23:00:00 4.8 10 Oeste 31 Sudoeste 0.2 -- -- 87
2020-03-06 22:00:00 4.5 13 Oeste 34 Oeste 2.4 -- -- 87
2020-03-06 21:00:00 4.8 8 Noroeste 24 Oeste 2.2 -- -- 88
2020-03-06 20:00:00 4.4 9 Noroeste 44 Noroeste 2.6 -- -- 88
2020-03-06 19:00:00 5.1 16 Noroeste 38 Oeste 2.6 -- -- 86
2020-03-06 18:00:00 5.7 12 Oeste 37 Noroeste 0.4 -- -- 82
2020-03-06 17:00:00 5.4 13 Noroeste 26 Noroeste 1.2 -- -- 86
2020-03-06 16:00:00 4.2 11 Noroeste 37 Noroeste 1.8 -- -- 86
2020-03-06 15:00:00 4 16 Noroeste 32 Oeste 2.4 -- -- 87
2020-03-06 14:00:00 5.3 11 Oeste 33 Oeste 0.8 -- -- 87
2020-03-06 13:00:00 6 9 Noroeste 30 Noroeste 0 -- -- 84
2020-03-06 12:00:00 4.3 12 Oeste 31 Oeste 1.2 -- -- 88
2020-03-06 11:00:00 2.5 5 Noroeste 27 Oeste 3.4 -- -- 93
2020-03-06 10:00:00 2.9 9 Oeste 21 Oeste 2.2 -- -- 93
2020-03-06 09:00:00 4.2 5 Noroeste 16 Oeste 1.8 -- -- 90
2020-03-06 08:00:00 4.5 4 Noroeste 12 Oeste 1 -- -- 91
2020-03-06 07:00:00 4.5 7 Noroeste 26 Noroeste 1 -- -- 89
2020-03-06 06:00:00 4.5 10 Oeste 21 Oeste 0.8 -- -- 97
2020-03-06 05:00:00 3.6 3 Sudoeste 5 Sudoeste 0 -- -- 97
2020-03-06 04:00:00 3.5 2 Sur 4 Sur 0 -- -- 97
2020-03-06 03:00:00 2.9 0 Calma 4 Norte 0 -- -- 95
2020-03-06 02:00:00 3.7 3 Norte 5 Nordeste 0 -- -- 93
2020-03-06 01:00:00 5.5 3 Norte 8 Norte 0 -- -- 87
2020-03-06 00:00:00 6.6 5 Noroeste 12 Noroeste 0 -- -- 86
2020-03-05 23:00:00 6.3 3 Noroeste 20 Norte 0 -- -- 87
2020-03-05 22:00:00 6.4 12 Norte 19 Norte 1.4 -- -- 85
2020-03-05 21:00:00 6.8 5 Noroeste 19 Noroeste 0 -- -- 81
2020-03-05 20:00:00 8 11 Noroeste 30 Oeste 0 -- -- 74
2020-03-05 19:00:00 8.2 12 Noroeste 42 Oeste 0.2 -- -- 77
2020-03-05 18:00:00 9.2 12 Noroeste 44 Oeste 0 -- -- 76
2020-03-05 17:00:00 9.8 16 Noroeste 45 Norte 0.4 -- -- 77
2020-03-05 16:00:00 11.1 16 Noroeste 51 Oeste 0.4 -- -- 77
2020-03-05 15:00:00 10.9 14 Noroeste 53 Oeste 0.8 -- -- 82
2020-03-05 14:00:00 11.3 7 Noroeste 16 Sudoeste 0 -- -- 80
2020-03-05 13:00:00 10.1 4 Oeste 23 Oeste 0.2 -- -- 86
2020-03-05 12:00:00 9.9 2 Sudeste 26 Nordeste 5.8 -- -- 90
2020-03-05 11:00:00 10.5 6 Norte 19 Noroeste 4.6 -- -- 88
2020-03-05 10:00:00 12.6 5 Sudeste 33 Sudeste 0.2 -- -- 83
2020-03-05 09:00:00 13.2 12 Sudeste 27 Sudeste 0 -- -- 77
2020-03-05 08:00:00 13.1 13 Sudeste 34 Sudeste 0 -- -- 76
2020-03-05 07:00:00 12.3 16 Sudeste 32 Sudeste 0 -- -- 80
2020-03-05 06:00:00 12.8 10 Sudeste 26 Sudeste 0 -- -- 78
2020-03-05 05:00:00 12.2 15 Sudeste 30 Sudeste 0 -- -- 82
2020-03-05 04:00:00 12.4 16 Sudeste 27 Sur 0 -- -- 82
2020-03-05 03:00:00 12 6 Sudeste 25 Sur 0 -- -- 85
2020-03-05 02:00:00 10.2 3 Norte 6 Noroeste 0 -- -- 94
2020-03-05 01:00:00 10.3 0 Calma 13 Este 0 -- -- 92
2020-03-05 00:00:00 10.4 6 Nordeste 14 Este 0 -- -- 99
2020-03-04 23:00:00 9.6 4 Noroeste 14 Oeste 0 -- -- 97
2020-03-04 22:00:00 10 3 Norte 15 Sudoeste 0 -- -- 96
2020-03-04 21:00:00 10.5 0 Calma 6 Norte 0 -- -- 94
2020-03-04 20:00:00 12.1 0 Calma 9 Nordeste 0 -- -- 90
2020-03-04 19:00:00 14.4 4 Este 9 Este 0 -- -- 84
2020-03-04 18:00:00 14.9 4 Sudeste 12 Sudeste 0 -- -- 84
2020-03-04 17:00:00 15.7 5 Sur 10 Sudeste 0 -- -- 81
2020-03-04 16:00:00 15.5 2 Sur 8 Sudeste 0 -- -- 81
2020-03-04 15:00:00 14.5 3 Sudoeste 11 Sudeste 0 -- -- 85
2020-03-04 14:00:00 13 3 Sudoeste 9 Sudeste 0 -- -- 91
2020-03-04 13:00:00 12.7 3 Sur 13 Sudeste 0 -- -- 90
2020-03-04 12:00:00 11.9 6 Sur 13 Sur 0 -- -- 92
2020-03-04 11:00:00 11 6 Este 13 Este 0 -- -- 96
2020-03-04 10:00:00 9.1 0 Calma 3 Noroeste 0.4 -- -- 99
2020-03-04 09:00:00 7.6 0 Calma 3 Nordeste 1.4 -- -- 98
2020-03-04 08:00:00 7.2 0 Calma 3 Nordeste 1.4 -- -- 98
2020-03-04 07:00:00 7.1 0 Calma 2 Oeste 1.4 -- -- 97
2020-03-04 06:00:00 7.3 0 Calma 9 Este 0.8 -- -- 96
2020-03-04 05:00:00 7.1 0 Calma 8 Sudeste 1.4 -- -- 97
2020-03-04 04:00:00 6.7 0 Calma 4 Noroeste 0 -- -- 97
2020-03-04 03:00:00 6.5 0 Calma 4 Norte 0 -- -- 96
2020-03-04 02:00:00 6.9 0 Calma 4 Sur 0 -- -- 94
2020-03-04 01:00:00 7.8 3 Nordeste 14 Norte 0 -- -- 92
2020-03-04 00:00:00 8 6 Norte 17 Noroeste 0 -- -- 90